createdAt,value
2023-04-15T00:02:51.610Z,82.48
2023-04-15T00:06:34.369Z,82.67
2023-04-15T00:10:16.999Z,83.32
2023-04-15T00:14:01.047Z,83.94
2023-04-15T00:17:43.692Z,85.58
2023-04-15T00:21:27.543Z,84.60
2023-04-15T00:25:10.527Z,84.26
2023-04-15T00:28:53.170Z,84.15
2023-04-15T00:32:37.182Z,83.05
2023-04-15T00:36:19.797Z,83.12
2023-04-15T00:40:04.970Z,83.78
2023-04-15T00:43:48.029Z,84.50
2023-04-15T00:47:34.195Z,83.13
2023-04-15T00:51:18.269Z,83.89
2023-04-15T00:55:01.212Z,84.49
2023-04-15T00:58:43.853Z,84.94
2023-04-15T01:02:27.407Z,84.79
2023-04-15T01:06:10.293Z,85.28
2023-04-15T01:09:54.471Z,84.90
2023-04-15T01:13:37.667Z,85.39
2023-04-15T01:17:20.871Z,85.24
2023-04-15T01:21:03.725Z,84.97
2023-04-15T01:24:56.963Z,85.06
2023-04-15T01:28:40.987Z,85.48
2023-04-15T01:32:23.643Z,84.38
2023-04-15T01:36:08.491Z,83.87
2023-04-15T01:39:51.728Z,84.36
2023-04-15T01:43:34.392Z,85.35
2023-04-15T01:47:18.591Z,84.74
2023-04-15T01:51:01.443Z,83.76
2023-04-15T01:54:44.126Z,82.62
2023-04-15T01:58:27.274Z,81.32
2023-04-15T02:02:10.593Z,82.20
2023-04-15T02:05:54.672Z,81.81
2023-04-15T02:09:39.789Z,82.26
2023-04-15T02:13:22.480Z,82.72
2023-04-15T02:17:07.441Z,82.61
2023-04-15T02:20:50.654Z,82.35
2023-04-15T02:24:36.002Z,81.72
2023-04-15T02:28:18.667Z,82.57
2023-04-15T02:32:01.417Z,83.37
2023-04-15T02:35:45.383Z,84.08
2023-04-15T02:39:28.096Z,83.22
2023-04-15T02:43:12.292Z,83.09
2023-04-15T02:46:54.960Z,81.45
2023-04-15T02:50:39.846Z,81.08
2023-04-15T02:54:23.782Z,81.09
2023-04-15T02:58:06.478Z,82.04
2023-04-15T03:01:50.602Z,81.76
2023-04-15T03:05:33.430Z,82.02
2023-04-15T03:09:16.064Z,81.39
2023-04-15T03:12:58.685Z,81.21
2023-04-15T03:16:41.366Z,81.27
2023-04-15T03:20:25.483Z,82.22
2023-04-15T03:24:08.158Z,82.19
2023-04-15T03:27:51.055Z,82.15
2023-04-15T03:31:33.920Z,81.70
2023-04-15T03:35:17.058Z,81.33
2023-04-15T03:39:02.245Z,79.83
2023-04-15T03:42:45.180Z,79.50
2023-04-15T03:46:27.916Z,78.83
2023-04-15T03:50:11.188Z,78.61
2023-04-15T03:53:53.945Z,79.10
2023-04-15T03:57:39.045Z,78.20
2023-04-15T04:01:22.040Z,78.69
2023-04-15T04:05:05.053Z,77.79
2023-04-15T04:08:47.717Z,77.91
2023-04-15T04:12:30.626Z,78.32
2023-04-15T04:16:14.699Z,78.27
2023-04-15T04:19:57.452Z,76.31
2023-04-15T04:23:40.150Z,76.48
2023-04-15T04:27:22.789Z,77.13
2023-04-15T04:31:05.550Z,77.52
2023-04-15T04:34:49.540Z,76.76
2023-04-15T04:38:32.186Z,77.36
2023-04-15T04:42:14.886Z,77.54
2023-04-15T04:45:57.566Z,77.72
2023-04-15T04:49:40.985Z,76.65
2023-04-15T04:53:25.062Z,77.28
2023-04-15T04:57:08.609Z,76.46
2023-04-15T05:00:51.878Z,75.49
2023-04-15T05:04:34.660Z,75.50
2023-04-15T05:08:17.520Z,75.55
2023-04-15T05:12:01.558Z,74.87
2023-04-15T05:15:44.893Z,74.74
2023-04-15T05:19:27.604Z,74.72
2023-04-15T05:23:10.268Z,73.95
2023-04-15T05:26:52.894Z,73.43
2023-04-15T05:30:36.938Z,73.50
2023-04-15T05:34:19.759Z,73.71
2023-04-15T05:38:02.400Z,73.63
2023-04-15T05:41:45.127Z,73.22
2023-04-15T05:45:27.737Z,72.94
2023-04-15T05:49:12.050Z,72.39
2023-04-15T05:52:54.728Z,71.72
2023-04-15T05:56:37.420Z,71.74
2023-04-15T06:00:21.238Z,71.16
2023-04-15T06:04:03.981Z,70.95
2023-04-15T06:07:48.701Z,71.65
2023-04-15T06:11:31.511Z,71.88
2023-04-15T06:15:14.147Z,70.64
2023-04-15T06:18:56.827Z,70.07
2023-04-15T06:22:39.826Z,69.69
2023-04-15T06:26:23.812Z,70.22
2023-04-15T06:30:08.072Z,70.60
2023-04-15T06:33:50.767Z,70.10
2023-04-15T06:37:33.390Z,69.91
2023-04-15T06:41:16.273Z,69.65
2023-04-15T06:45:00.418Z,69.41
2023-04-15T06:48:43.051Z,68.83
2023-04-15T06:52:26.112Z,66.81
2023-04-15T06:56:09.580Z,66.94
2023-04-15T06:59:54.577Z,66.99
2023-04-15T07:03:38.994Z,66.28
2023-04-15T07:07:21.620Z,65.98
2023-04-15T07:11:04.269Z,65.99
2023-04-15T07:14:47.167Z,65.72
2023-04-15T07:18:29.853Z,65.25
2023-04-15T07:22:14.129Z,64.69
2023-04-15T07:25:57.015Z,63.56
2023-04-15T07:29:39.681Z,62.93
2023-04-15T07:33:22.535Z,62.16
2023-04-15T07:37:05.328Z,62.36
2023-04-15T07:40:49.590Z,62.18
2023-04-15T07:44:32.490Z,62.18
2023-04-15T07:48:15.122Z,61.70
2023-04-15T07:51:57.796Z,61.25
2023-04-15T07:55:40.541Z,60.92
2023-04-15T07:59:24.577Z,61.36
2023-04-15T08:03:07.753Z,60.32
2023-04-15T08:06:50.548Z,60.50
2023-04-15T08:10:33.188Z,60.28
2023-04-15T08:14:15.970Z,60.32
2023-04-15T08:18:00.727Z,57.99
2023-04-15T08:21:43.410Z,56.99
2023-04-15T08:25:26.277Z,57.29
2023-04-15T08:29:09.145Z,57.87
2023-04-15T08:32:52.237Z,56.95
2023-04-15T08:36:36.753Z,56.49
2023-04-15T08:40:19.495Z,57.22
2023-04-15T08:44:05.402Z,58.31
2023-04-15T08:47:49.965Z,58.07
2023-04-15T08:51:33.717Z,57.98
2023-04-15T08:55:17.890Z,57.69
2023-04-15T08:59:01.092Z,58.71
2023-04-15T09:02:44.362Z,58.51
2023-04-15T09:06:27.312Z,57.99
2023-04-15T09:10:11.695Z,57.68
2023-04-15T09:13:55.746Z,58.03
2023-04-15T09:17:43.580Z,57.67
2023-04-15T09:21:26.337Z,56.93
2023-04-15T09:25:28.030Z,57.10
2023-04-15T09:29:13.521Z,56.91
2023-04-15T09:32:57.636Z,56.12
2023-04-15T09:36:54.002Z,57.45
2023-04-15T09:40:37.838Z,57.51
2023-04-15T09:44:25.185Z,57.31
2023-04-15T09:48:20.761Z,58.90
2023-04-15T09:52:06.018Z,57.83
2023-04-15T09:55:51.454Z,57.01
2023-04-15T09:59:35.647Z,55.21
2023-04-15T10:03:21.140Z,53.95
2023-04-15T10:07:05.144Z,49.99
2023-04-15T10:10:48.391Z,50.31
2023-04-15T10:14:35.601Z,52.16
2023-04-15T10:18:20.960Z,51.25
2023-04-15T10:22:03.729Z,52.25
2023-04-15T10:25:47.478Z,52.52
2023-04-15T10:29:30.401Z,53.22
2023-04-15T10:33:14.684Z,52.52
2023-04-15T10:36:57.863Z,51.93
2023-04-15T10:40:41.082Z,53.56
2023-04-15T10:44:23.874Z,52.77
2023-04-15T10:48:08.740Z,53.07
2023-04-15T10:51:54.565Z,53.19
2023-04-15T10:55:37.236Z,52.67
2023-04-15T10:59:21.404Z,53.19
2023-04-15T11:03:08.032Z,52.33
2023-04-15T11:07:07.983Z,53.02
2023-04-15T11:10:57.398Z,54.03
2023-04-15T11:14:41.418Z,54.69
2023-04-15T11:18:25.568Z,53.86
2023-04-15T11:22:10.579Z,53.17
2023-04-15T11:25:53.206Z,53.81
2023-04-15T11:29:36.532Z,54.29
2023-04-15T11:33:19.308Z,54.56
2023-04-15T11:37:03.616Z,55.41
2023-04-15T11:40:47.725Z,55.44
2023-04-15T11:44:30.433Z,55.02
2023-04-15T11:48:16.288Z,55.11
2023-04-15T11:51:58.994Z,55.90
2023-04-15T11:55:47.282Z,55.36
2023-04-15T11:59:45.495Z,55.26
2023-04-15T12:03:30.988Z,56.19
2023-04-15T12:07:13.889Z,56.25
2023-04-15T12:11:01.605Z,57.36
2023-04-15T12:14:44.784Z,56.66
2023-04-15T12:18:27.485Z,57.07
2023-04-15T12:22:11.544Z,56.90
2023-04-15T12:25:54.149Z,56.28
2023-04-15T12:29:40.122Z,55.67
2023-04-15T12:33:22.726Z,55.95
2023-04-15T12:37:09.461Z,56.00
2023-04-15T12:40:52.177Z,56.52
2023-04-15T12:44:37.140Z,56.84
2023-04-15T12:48:21.280Z,54.92
2023-04-15T12:52:04.654Z,52.90
2023-04-15T12:55:47.303Z,50.46
2023-04-15T12:59:30.029Z,50.67
2023-04-15T13:03:12.700Z,50.85
2023-04-15T13:06:56.888Z,50.32
2023-04-15T13:10:39.635Z,50.46
2023-04-15T13:14:22.342Z,49.49
2023-04-15T13:18:08.416Z,49.23
2023-04-15T13:21:51.060Z,50.27
2023-04-15T13:25:35.016Z,54.05
2023-04-15T13:29:17.606Z,53.82
2023-04-15T13:33:00.662Z,52.62
2023-04-15T13:36:43.351Z,53.37
2023-04-15T13:40:26.334Z,53.09
2023-04-15T13:44:13.535Z,53.50
2023-04-15T13:47:56.791Z,51.40
2023-04-15T13:51:40.520Z,53.92
2023-04-15T13:55:25.471Z,55.43
2023-04-15T13:59:10.438Z,55.11
2023-04-15T14:02:53.238Z,55.15
2023-04-15T14:06:35.989Z,55.36
2023-04-15T14:10:18.775Z,57.46
2023-04-15T14:14:01.427Z,56.40
2023-04-15T14:17:45.550Z,56.31
2023-04-15T14:21:29.972Z,56.59
2023-04-15T14:25:23.141Z,54.67
2023-04-15T14:29:13.397Z,55.22
2023-04-15T14:32:57.502Z,53.43
2023-04-15T14:36:41.703Z,52.71
2023-04-15T14:40:24.447Z,53.81
2023-04-15T14:44:09.683Z,53.79
2023-04-15T14:47:53.185Z,53.70
2023-04-15T14:51:37.327Z,54.31
2023-04-15T14:55:20.401Z,54.42
2023-04-15T14:59:03.274Z,54.95
2023-04-15T15:02:47.482Z,54.97
2023-04-15T15:06:30.329Z,55.51
2023-04-15T15:10:14.353Z,57.06
2023-04-15T15:13:57.043Z,59.22
2023-04-15T15:17:39.760Z,60.38
2023-04-15T15:21:22.458Z,62.83
2023-04-15T15:25:05.747Z,64.44
2023-04-15T15:28:50.714Z,66.25
2023-04-15T15:32:33.462Z,67.56
2023-04-15T15:36:16.119Z,68.29
2023-04-15T15:39:58.854Z,69.93
2023-04-15T15:43:41.559Z,70.37
2023-04-15T15:47:26.548Z,70.44
2023-04-15T15:51:09.241Z,70.86
2023-04-15T15:54:51.910Z,70.15
2023-04-15T15:58:34.675Z,70.61
2023-04-15T16:02:17.384Z,71.20
2023-04-15T16:06:01.610Z,71.31
2023-04-15T16:09:44.351Z,71.35
2023-04-15T16:13:26.989Z,71.65
2023-04-15T16:17:09.680Z,71.45
2023-04-15T16:20:52.285Z,71.08
2023-04-15T16:24:36.240Z,70.86
2023-04-15T16:28:26.366Z,70.47
2023-04-15T16:32:09.777Z,70.17
2023-04-15T16:35:52.679Z,69.92
2023-04-15T16:39:37.325Z,69.99
2023-04-15T16:43:21.295Z,69.16
2023-04-15T16:47:03.950Z,69.66
2023-04-15T16:50:46.625Z,69.84
2023-04-15T16:54:29.713Z,69.51
2023-04-15T16:58:13.685Z,68.73
2023-04-15T17:01:56.380Z,70.79
2023-04-15T17:05:39.093Z,71.79
2023-04-15T17:09:21.792Z,73.33
2023-04-15T17:13:04.453Z,73.66
2023-04-15T17:16:48.529Z,75.02
2023-04-15T17:20:31.185Z,75.05
2023-04-15T17:24:13.823Z,75.89
2023-04-15T17:27:56.589Z,76.93
2023-04-15T17:31:39.397Z,77.49
2023-04-15T17:35:25.560Z,78.23
2023-04-15T17:39:11.580Z,78.57
2023-04-15T17:42:54.704Z,80.35
2023-04-15T17:46:37.395Z,80.18
2023-04-15T17:50:20.280Z,80.40
2023-04-15T17:54:04.601Z,80.72
2023-04-15T17:57:47.535Z,80.41
2023-04-15T18:01:30.536Z,80.67
2023-04-15T18:05:13.201Z,81.20
2023-04-15T18:08:56.086Z,81.25
2023-04-15T18:12:40.068Z,81.42
2023-04-15T18:16:22.862Z,82.42
2023-04-15T18:20:06.103Z,82.09
2023-04-15T18:23:48.757Z,82.69
2023-04-15T18:27:32.075Z,82.51
2023-04-15T18:31:16.195Z,83.26
2023-04-15T18:34:58.924Z,84.22
2023-04-15T18:38:41.928Z,83.61
2023-04-15T18:42:24.802Z,84.16
2023-04-15T18:46:11.719Z,83.26
2023-04-15T18:49:55.881Z,82.65
2023-04-15T18:53:38.623Z,83.47
2023-04-15T18:57:23.361Z,82.22
2023-04-15T19:01:10.598Z,81.81
2023-04-15T19:04:55.962Z,82.73
2023-04-15T19:08:38.647Z,83.69
2023-04-15T19:12:21.345Z,85.00
2023-04-15T19:16:04.097Z,85.30
2023-04-15T19:19:46.813Z,84.95
2023-04-15T19:23:31.847Z,83.94
2023-04-15T19:27:14.604Z,83.20
2023-04-15T19:30:57.997Z,82.79
2023-04-15T19:34:40.779Z,82.80
2023-04-15T19:38:23.457Z,81.90
2023-04-15T19:42:07.509Z,82.32
2023-04-15T19:45:52.309Z,81.24
2023-04-15T19:49:35.065Z,82.08
2023-04-15T19:53:17.671Z,82.09
2023-04-15T19:57:01.455Z,81.65
2023-04-15T20:00:45.509Z,81.86
2023-04-15T20:04:28.336Z,82.65
2023-04-15T20:08:11.300Z,83.14
2023-04-15T20:12:48.243Z,84.23
2023-04-15T20:15:57.916Z,83.64
2023-04-15T20:19:40.638Z,84.41
2023-04-15T20:23:23.274Z,84.57
2023-04-15T20:27:06.141Z,85.66
2023-04-15T20:30:48.812Z,85.27
2023-04-15T20:34:32.763Z,85.88
2023-04-15T20:38:16.353Z,86.23
2023-04-15T20:41:59.081Z,87.89
2023-04-15T20:45:41.705Z,89.02
2023-04-15T20:49:24.402Z,91.49
2023-04-15T20:53:08.398Z,93.06
2023-04-15T20:56:51.028Z,93.68
2023-04-15T21:00:33.745Z,94.64
2023-04-15T21:04:16.441Z,94.99
2023-04-15T21:07:59.095Z,95.33
2023-04-15T21:12:00.423Z,94.41
2023-04-15T21:15:44.895Z,94.67
2023-04-15T21:19:27.519Z,94.86
2023-04-15T21:23:12.487Z,94.60
2023-04-15T21:26:57.613Z,93.31
2023-04-15T21:30:40.258Z,93.40
2023-04-15T21:34:22.877Z,93.89
2023-04-15T21:38:05.513Z,94.98
2023-04-15T21:41:48.128Z,93.72
2023-04-15T21:45:32.161Z,94.79
2023-04-15T21:49:14.841Z,94.94
2023-04-15T21:52:57.498Z,94.76
2023-04-15T21:56:40.108Z,95.08
2023-04-15T22:00:23.093Z,95.81
2023-04-15T22:04:07.472Z,95.35
2023-04-15T22:07:50.497Z,95.65
2023-04-15T22:11:33.150Z,96.09
2023-04-15T22:15:16.722Z,97.07
2023-04-15T22:18:59.443Z,97.76
2023-04-15T22:22:44.742Z,97.95
2023-04-15T22:26:27.559Z,98.03
2023-04-15T22:30:11.517Z,94.94
2023-04-15T22:33:54.097Z,94.09
2023-04-15T22:37:36.722Z,94.01
2023-04-15T22:41:20.686Z,94.12
2023-04-15T22:45:03.325Z,93.99
2023-04-15T22:48:45.952Z,94.33
2023-04-15T22:52:31.035Z,95.36
2023-04-15T22:56:14.078Z,96.19
2023-04-15T22:59:58.063Z,95.92
2023-04-15T23:03:55.839Z,95.96
2023-04-15T23:07:42.636Z,96.25
2023-04-15T23:11:25.238Z,96.55
2023-04-15T23:15:10.401Z,95.56
2023-04-15T23:18:53.030Z,93.28
2023-04-15T23:22:37.483Z,95.50
2023-04-15T23:26:20.087Z,94.96
2023-04-15T23:30:02.816Z,96.78
2023-04-15T23:33:46.788Z,97.70
2023-04-15T23:37:31.096Z,96.76
2023-04-15T23:41:14.507Z,96.80
2023-04-15T23:44:57.272Z,96.76
2023-04-15T23:48:40.626Z,95.95
2023-04-15T23:52:24.653Z,94.22
2023-04-15T23:56:07.745Z,95.45
2023-04-15T23:59:50.557Z,96.88
